Terminal Aerodrome Forecast
Issued by NWS Bismarck, ND

Home | Current Version | Previous Version | Text Only | Print | Product List | Glossary Off
Versions: 1 2 3 4 5 6 7 8 9 10 11 12 13 14 15 16 17 18

850
FTUS43 KBIS 272146 AAA
TAFISN
TAF AMD
KISN 272146Z 2722/2818 06006KT P6SM VCSH BKN050
      TEMPO 2723/2801 6SM -SHRA BKN040
     FM280300 07004KT P6SM BKN060
     FM281000 06004KT P6SM OVC015
     FM281600 11006KT P6SM BKN035=

USA.gov is the U.S. government's official web portal to all federal, state and local government web resources and services.